Arlington, Ohio
Current Conditions -  °F | °C
As of 4:53 AM on Tuesday 21 Oct 2014 (Local Time) from KFDY Reporting Station
Overcast Overcast  
Wind Chill: 50°   Ceiling: 3300
Heat Index: 50°   Visibility: 10mi
Dew Point: 44°   Wind: 7mph
Humidity: 80%   Direction: 310°NW
Pressure: 29.9"   Gusts: NA
Location:  40.89°N, 83.65°W
Report Text: KFDY 210853Z AUTO 31006KT 10SM OVC033 10/07 A2990 RMK AO2 RAE06 SLP124 P0000 60000 T01000067 53006
Loading
Personal Weather Stations






























Interactive Weather Map
Tropical Storm Tracking
New forecast layout! Learn more

10-Day Weather Forecast

Advertisements
Track Severe Weather on mobile